Putnamville, Indiana
Current Conditions -  °F | °C
As of 4:35 PM on Saturday 22 Nov 2014 (Local Time) from K4I7 Reporting Station
Overcast Overcast  
Wind Chill: 55°   Ceiling: 4600
Heat Index: 55°   Visibility: 10mi
Dew Point: 43°   Wind: 10mph
Humidity: 63%   Direction: 200°SSW
Pressure: 30.02"   Gusts: 20mph
Location:  39.57°N, 86.87°W
Report Text: K4I7 222135Z AUTO 20009G17KT 10SM BKN046 BKN060 OVC065 13/06 A3002 RMK AO2
Loading
Personal Weather Stations






























Interactive Weather Map New forecast layout! Learn more

10-Day Weather Forecast

Advertisements
Track Severe Weather on mobile